createdAt,value
2019-06-01T00:01:12.006Z,98831.93
2019-06-01T00:03:42.773Z,98832.16
2019-06-01T00:06:13.625Z,98832.34
2019-06-01T00:27:05.240Z,98822.98
2019-06-01T00:29:40.541Z,98818.45
2019-06-01T00:32:11.272Z,98823.91
2019-06-01T00:34:47.685Z,98818.53
2019-06-01T00:37:20.939Z,98814.78
2019-06-01T00:39:53.360Z,98814.04
2019-06-01T00:42:25.960Z,98812.56
2019-06-01T00:44:58.799Z,98814.88
2019-06-01T00:47:30.277Z,98811.98
2019-06-01T00:50:00.979Z,98802.41
2019-06-01T00:52:34.174Z,98805.70
2019-06-01T00:55:05.672Z,98804.47
2019-06-01T00:57:36.022Z,98803.34
2019-06-01T01:00:07.384Z,98797.63
2019-06-01T01:02:37.913Z,98801.48
2019-06-01T01:05:22.331Z,98800.25
2019-06-01T01:07:53.516Z,98806.16
2019-06-01T01:10:24.587Z,98806.34
2019-06-01T01:13:13.405Z,98806.06
2019-06-01T01:15:43.803Z,98812.00
2019-06-01T01:18:17.887Z,98805.98
2019-06-01T01:20:52.041Z,98807.86
2019-06-01T01:23:22.453Z,98808.14
2019-06-01T01:25:52.820Z,98804.59
2019-06-01T01:28:28.379Z,98807.67
2019-06-01T01:31:13.349Z,98801.69
2019-06-01T01:33:36.479Z,98799.80
2019-06-01T01:36:07.307Z,98796.32
2019-06-01T01:38:43.258Z,98798.28
2019-06-01T01:41:15.413Z,98797.35
2019-06-01T01:43:48.455Z,98791.44
2019-06-01T01:46:18.879Z,98804.29
2019-06-01T01:48:49.914Z,98800.92
2019-06-01T01:51:25.424Z,98804.86
2019-06-01T01:53:59.999Z,98796.78
2019-06-01T01:56:30.426Z,98797.42
2019-06-01T01:59:04.371Z,98797.35
2019-06-01T02:01:36.072Z,98792.09
2019-06-01T02:04:10.328Z,98794.63
2019-06-01T02:06:43.892Z,98800.14
2019-06-01T02:09:14.429Z,98796.56
2019-06-01T02:11:45.033Z,98797.23
2019-06-01T02:14:15.367Z,98790.02
2019-06-01T02:16:54.423Z,98784.94
2019-06-01T02:19:24.812Z,98783.06
2019-06-01T02:21:56.462Z,98786.25
2019-06-01T02:24:26.971Z,98783.42
2019-06-01T02:26:57.331Z,98785.30
2019-06-01T02:29:27.792Z,98782.85
2019-06-01T02:31:59.136Z,98783.34
2019-06-01T02:34:30.136Z,98782.50
2019-06-01T02:37:00.517Z,98776.30
2019-06-01T02:39:31.038Z,98783.23
2019-06-01T02:42:03.252Z,98782.39
2019-06-01T02:44:33.767Z,98778.45
2019-06-01T02:47:06.191Z,98783.78
2019-06-01T02:49:39.818Z,98784.06
2019-06-01T02:52:12.871Z,98787.36
2019-06-01T02:54:43.194Z,98776.86
2019-06-01T02:57:21.574Z,98778.00
2019-06-01T02:59:52.205Z,98779.10
2019-06-01T03:02:22.649Z,98779.46
2019-06-01T03:04:55.046Z,98779.25
2019-06-01T03:07:29.642Z,98786.30
2019-06-01T03:10:01.243Z,98783.08
2019-06-01T03:12:35.307Z,98784.11
2019-06-01T03:15:09.078Z,98786.73
2019-06-01T03:17:43.306Z,98790.09
2019-06-01T03:20:14.307Z,98791.23
2019-06-01T03:22:46.557Z,98790.09
2019-06-01T03:25:17.161Z,98797.23
2019-06-01T03:27:49.931Z,98789.53
2019-06-01T03:30:30.684Z,98788.78
2019-06-01T03:33:01.225Z,98784.75
2019-06-01T03:35:32.028Z,98776.23
2019-06-01T03:38:03.003Z,98784.28
2019-06-01T03:40:33.289Z,98783.61
2019-06-01T03:43:04.288Z,98786.30
2019-06-01T03:45:37.649Z,98775.45
2019-06-01T03:48:08.756Z,98780.70
2019-06-01T03:50:41.832Z,98777.27
2019-06-01T03:53:12.287Z,98778.22
2019-06-01T03:55:42.856Z,98782.51
2019-06-01T03:58:13.312Z,98773.83
2019-06-01T04:00:46.203Z,98778.11
2019-06-01T04:03:18.107Z,98784.06
2019-06-01T04:05:51.813Z,98784.53
2019-06-01T04:08:22.164Z,98778.83
2019-06-01T04:10:52.869Z,98785.20
2019-06-01T04:13:23.214Z,98784.85
2019-06-01T04:15:53.540Z,98782.97
2019-06-01T04:18:26.159Z,98788.33
2019-06-01T04:20:57.520Z,98789.46
2019-06-01T04:23:27.899Z,98787.90
2019-06-01T04:25:59.612Z,98789.03
2019-06-01T04:28:29.973Z,98788.18
2019-06-01T04:31:00.269Z,98784.84
2019-06-01T04:33:33.186Z,98783.45
2019-06-01T04:36:04.819Z,98782.30
2019-06-01T04:38:38.127Z,98785.98
2019-06-01T04:41:09.767Z,98783.46
2019-06-01T04:43:41.601Z,98778.01
2019-06-01T04:46:18.183Z,98783.09
2019-06-01T04:48:50.302Z,98786.27
2019-06-01T04:53:58.653Z,98788.64
2019-06-01T04:56:29.290Z,98787.77
2019-06-01T04:58:59.670Z,98787.67
2019-06-01T05:01:30.328Z,98787.76
2019-06-01T05:04:04.917Z,98788.70
2019-06-01T05:06:35.363Z,98794.30
2019-06-01T05:09:09.282Z,98789.78
2019-06-01T05:11:39.994Z,98793.33
2019-06-01T05:14:17.927Z,98787.01
2019-06-01T05:16:49.407Z,98797.20
2019-06-01T05:19:20.023Z,98793.39
2019-06-01T05:22:10.422Z,98796.07
2019-06-01T05:24:41.707Z,98794.96
2019-06-01T05:27:13.141Z,98795.08
2019-06-01T05:29:43.792Z,98788.44
2019-06-01T05:32:17.199Z,98793.73
2019-06-01T05:34:51.971Z,98797.70
2019-06-01T05:37:22.269Z,98793.46
2019-06-01T05:39:52.654Z,98797.42
2019-06-01T05:42:23.283Z,98799.67
2019-06-01T05:44:53.594Z,98800.13
2019-06-01T05:47:24.159Z,98800.21
2019-06-01T05:49:54.605Z,98802.36
2019-06-01T05:52:28.991Z,98801.36
2019-06-01T05:54:59.491Z,98801.80
2019-06-01T05:57:31.123Z,98797.08
2019-06-01T06:00:03.875Z,98798.60
2019-06-01T06:02:37.269Z,98795.30
2019-06-01T06:05:10.645Z,98798.60
2019-06-01T06:07:46.806Z,98804.39
2019-06-01T06:10:18.416Z,98801.81
2019-06-01T06:12:49.135Z,98803.53
2019-06-01T06:15:21.890Z,98801.01
2019-06-01T06:17:52.266Z,98804.81
2019-06-01T06:20:25.253Z,98804.34
2019-06-01T06:22:58.279Z,98798.44
2019-06-01T06:25:33.303Z,98804.09
2019-06-01T06:28:05.198Z,98800.81
2019-06-01T06:30:39.937Z,98799.61
2019-06-01T06:33:17.403Z,98803.08
2019-06-01T06:35:48.028Z,98802.59
2019-06-01T06:38:19.777Z,98804.63
2019-06-01T06:40:53.904Z,98809.30
2019-06-01T06:43:33.169Z,98810.58
2019-06-01T06:46:04.889Z,98806.30
2019-06-01T06:48:38.263Z,98809.75
2019-06-01T06:51:11.833Z,98818.94
2019-06-01T06:53:43.911Z,98815.92
2019-06-01T06:56:16.236Z,98811.75
2019-06-01T06:58:49.625Z,98806.98
2019-06-01T07:01:25.011Z,98805.47
2019-06-01T07:04:11.788Z,98813.37
2019-06-01T07:06:32.153Z,98817.25
2019-06-01T07:09:09.025Z,98814.13
2019-06-01T07:11:39.353Z,98817.25
2019-06-01T07:14:09.941Z,98821.76
2019-06-01T07:16:40.260Z,98818.42
2019-06-01T07:19:13.795Z,98823.94
2019-06-01T07:21:45.124Z,98829.85
2019-06-01T07:24:15.745Z,98829.94
2019-06-01T07:26:46.127Z,98833.44
2019-06-01T07:29:16.441Z,98827.11
2019-06-01T07:31:46.735Z,98827.59
2019-06-01T07:34:31.045Z,98823.23
2019-06-01T07:36:52.623Z,98824.41
2019-06-01T07:39:24.748Z,98823.76
2019-06-01T07:41:55.282Z,98827.84
2019-06-01T07:44:26.851Z,98818.02
2019-06-01T07:46:57.368Z,98820.14
2019-06-01T07:49:27.618Z,98816.90
2019-06-01T07:51:58.453Z,98818.61
2019-06-01T07:54:32.704Z,98823.36
2019-06-01T07:57:12.258Z,98821.59
2019-06-01T07:59:43.677Z,98817.86
2019-06-01T08:02:14.203Z,98813.46
2019-06-01T08:04:53.565Z,98818.73
2019-06-01T08:07:16.782Z,98815.52
2019-06-01T08:09:47.168Z,98813.14
2019-06-01T08:12:19.020Z,98813.52
2019-06-01T08:14:49.411Z,98823.38
2019-06-01T08:17:19.711Z,98820.81
2019-06-01T08:19:53.749Z,98819.37
2019-06-01T08:22:24.156Z,98815.25
2019-06-01T08:24:54.599Z,98819.86
2019-06-01T08:27:28.715Z,98813.59
2019-06-01T08:29:59.138Z,98814.98
2019-06-01T08:32:31.280Z,98820.64
2019-06-01T08:35:11.568Z,98820.36
2019-06-01T08:37:42.260Z,98810.66
2019-06-01T08:40:15.600Z,98806.80
2019-06-01T08:42:48.276Z,98806.66
2019-06-01T08:45:23.533Z,98811.16
2019-06-01T08:47:54.126Z,98816.91
2019-06-01T08:50:25.699Z,98812.86
2019-06-01T08:52:56.220Z,98819.09
2019-06-01T08:55:28.116Z,98816.40
2019-06-01T08:57:58.616Z,98815.59
2019-06-01T09:00:32.668Z,98810.50
2019-06-01T09:03:07.435Z,98820.40
2019-06-01T09:05:38.722Z,98809.20
2019-06-01T09:08:10.171Z,98817.43
2019-06-01T09:10:40.819Z,98812.47
2019-06-01T09:13:12.504Z,98813.36
2019-06-01T09:15:44.483Z,98806.14
2019-06-01T09:18:21.117Z,98803.91
2019-06-01T09:20:53.240Z,98804.28
2019-06-01T09:23:27.599Z,98805.91
2019-06-01T09:26:12.039Z,98801.72
2019-06-01T09:28:46.167Z,98795.08
2019-06-01T09:31:32.697Z,98797.98
2019-06-01T09:34:08.363Z,98793.05
2019-06-01T09:37:05.983Z,98792.60
2019-06-01T09:39:40.415Z,98792.48
2019-06-01T09:42:12.504Z,98792.72
2019-06-01T09:44:46.601Z,98798.36
2019-06-01T09:47:19.654Z,98794.55
2019-06-01T09:49:50.242Z,98798.17
2019-06-01T09:52:22.715Z,98797.84
2019-06-01T09:54:53.459Z,98801.86
2019-06-01T09:57:24.037Z,98801.46
2019-06-01T10:00:01.714Z,98794.20
2019-06-01T10:02:40.650Z,98796.44
2019-06-01T10:05:16.770Z,98791.48
2019-06-01T10:07:59.482Z,98802.92
2019-06-01T10:10:42.839Z,98799.16
2019-06-01T10:13:27.920Z,98805.33
2019-06-01T10:15:58.994Z,98788.75
2019-06-01T10:18:35.107Z,98791.60
2019-06-01T10:21:15.293Z,98786.55
2019-06-01T10:23:49.971Z,98783.80
2019-06-01T10:26:26.784Z,98788.25
2019-06-01T10:29:13.785Z,98786.30
2019-06-01T10:32:26.839Z,98787.13
2019-06-01T10:37:46.090Z,98782.37
2019-06-01T10:40:24.989Z,98771.45
2019-06-01T10:43:24.333Z,98769.39
2019-06-01T10:45:58.576Z,98762.05
2019-06-01T10:51:40.364Z,98754.06
2019-06-01T10:54:19.800Z,98753.81
2019-06-01T10:56:55.543Z,98747.93
2019-06-01T10:59:36.303Z,98753.09
2019-06-01T11:02:16.510Z,98750.26
2019-06-01T11:04:49.552Z,98744.70
2019-06-01T11:08:30.006Z,98750.36
2019-06-01T11:11:02.523Z,98739.59
2019-06-01T11:13:39.374Z,98744.91
2019-06-01T11:16:16.410Z,98737.84
2019-06-01T11:19:11.774Z,98733.05
2019-06-01T11:22:09.292Z,98734.48
2019-06-01T11:24:50.880Z,98733.27
2019-06-01T11:27:33.552Z,98730.67
2019-06-01T11:30:28.910Z,98723.94
2019-06-01T11:33:13.371Z,98719.71
2019-06-01T11:36:08.614Z,98721.98
2019-06-01T11:38:42.724Z,98725.00
2019-06-01T11:41:23.862Z,98731.22
2019-06-01T11:45:03.610Z,98725.31
2019-06-01T11:50:43.026Z,98733.39
2019-06-01T11:53:14.525Z,98720.10
2019-06-01T11:55:48.470Z,98709.69
2019-06-01T12:02:21.944Z,98701.72
2019-06-01T12:04:54.032Z,98695.02
2019-06-01T12:07:35.893Z,98689.91
2019-06-01T12:10:11.178Z,98693.98
2019-06-01T12:12:44.793Z,98690.31
2019-06-01T12:15:18.893Z,98690.20
2019-06-01T12:17:49.588Z,98686.89
2019-06-01T12:20:24.936Z,98687.88
2019-06-01T12:23:00.241Z,98679.48
2019-06-01T12:25:33.831Z,98676.88
2019-06-01T12:28:11.714Z,98665.21
2019-06-01T12:30:49.823Z,98670.12
2019-06-01T12:33:22.387Z,98672.91
2019-06-01T12:35:55.803Z,98669.98
2019-06-01T12:38:27.205Z,98673.64
2019-06-01T12:41:03.265Z,98665.64
2019-06-01T12:43:36.667Z,98665.00
2019-06-01T12:46:10.426Z,98657.04
2019-06-01T12:48:46.393Z,98649.48
2019-06-01T12:51:22.825Z,98650.64
2019-06-01T12:53:56.600Z,98650.16
2019-06-01T12:56:32.654Z,98651.27
2019-06-01T13:02:15.198Z,98643.89
2019-06-01T13:04:49.091Z,98647.97
2019-06-01T13:07:22.533Z,98639.19
2019-06-01T13:09:54.390Z,98643.19
2019-06-01T13:12:24.652Z,98646.95
2019-06-01T13:15:08.289Z,98653.13
2019-06-01T13:17:41.063Z,98647.35
2019-06-01T13:20:12.004Z,98641.31
2019-06-01T13:22:43.472Z,98642.22
2019-06-01T13:25:14.140Z,98637.33
2019-06-01T13:27:44.425Z,98638.77
2019-06-01T13:30:16.737Z,98634.59
2019-06-01T13:32:46.917Z,98634.72
2019-06-01T13:35:20.810Z,98628.85
2019-06-01T13:38:11.945Z,98623.20
2019-06-01T13:40:37.538Z,98634.43
2019-06-01T13:43:11.949Z,98626.77
2019-06-01T13:45:43.191Z,98620.94
2019-06-01T13:48:22.483Z,98624.52
2019-06-01T13:50:55.612Z,98620.17
2019-06-01T13:53:25.915Z,98608.42
2019-06-01T13:56:08.424Z,98608.58
2019-06-01T13:58:41.194Z,98591.56
2019-06-01T14:01:17.908Z,98592.14
2019-06-01T14:03:49.365Z,98584.53
2019-06-01T14:06:29.696Z,98570.47
2019-06-01T14:09:01.695Z,98569.11
2019-06-01T14:11:37.044Z,98564.43
2019-06-01T14:14:07.669Z,98558.12
2019-06-01T14:16:47.487Z,98559.35
2019-06-01T14:19:18.000Z,98554.77
2019-06-01T14:21:52.168Z,98545.43
2019-06-01T14:24:25.261Z,98549.66
2019-06-01T14:27:46.321Z,98557.29
2019-06-01T14:30:18.266Z,98560.97
2019-06-01T14:32:52.569Z,98565.08
2019-06-01T14:35:22.838Z,98555.59
2019-06-01T14:37:53.780Z,98559.36
2019-06-01T14:40:27.099Z,98558.79
2019-06-01T14:42:58.164Z,98559.13
2019-06-01T14:45:34.665Z,98562.31
2019-06-01T14:48:17.458Z,98565.23
2019-06-01T14:50:47.801Z,98557.28
2019-06-01T14:53:19.767Z,98548.84
2019-06-01T14:55:55.830Z,98554.33
2019-06-01T14:58:34.164Z,98544.34
2019-06-01T15:01:05.825Z,98537.43
2019-06-01T15:03:42.929Z,98525.09
2019-06-01T15:06:13.286Z,98529.37
2019-06-01T15:09:13.184Z,98537.95
2019-06-01T15:11:25.807Z,98534.00
2019-06-01T15:18:46.290Z,98541.84
2019-06-01T15:24:37.761Z,98526.78
2019-06-01T15:27:08.605Z,98532.95
2019-06-01T15:29:43.878Z,98535.70
2019-06-01T15:32:32.507Z,98524.61
2019-06-01T15:35:22.309Z,98520.27
2019-06-01T15:38:01.845Z,98513.73
2019-06-01T15:40:30.680Z,98497.77
2019-06-01T15:43:04.288Z,98494.53
2019-06-01T15:45:41.383Z,98489.56
2019-06-01T15:48:14.213Z,98487.70
2019-06-01T15:50:46.999Z,98490.25
2019-06-01T15:53:22.397Z,98489.16
2019-06-01T15:56:11.664Z,98484.61
2019-06-01T15:58:52.274Z,98481.61
2019-06-01T16:01:20.144Z,98486.89
2019-06-01T16:03:55.084Z,98477.45
2019-06-01T16:06:27.256Z,98473.86
2019-06-01T16:08:57.564Z,98473.22
2019-06-01T16:11:36.492Z,98471.89
2019-06-01T16:14:09.091Z,98465.02
2019-06-01T16:17:12.277Z,98469.36
2019-06-01T16:19:44.620Z,98465.91
2019-06-01T16:22:19.481Z,98462.59
2019-06-01T16:25:18.071Z,98458.99
2019-06-01T16:28:05.656Z,98459.11
2019-06-01T16:30:35.954Z,98451.98
2019-06-01T16:33:20.093Z,98454.74
2019-06-01T16:35:50.479Z,98448.33
2019-06-01T16:38:20.822Z,98445.80
2019-06-01T16:40:53.502Z,98443.70
2019-06-01T16:43:25.974Z,98442.48
2019-06-01T16:45:59.678Z,98449.21
2019-06-01T16:48:30.261Z,98441.16
2019-06-01T16:51:01.786Z,98442.01
2019-06-01T16:53:32.535Z,98432.70
2019-06-01T16:56:03.984Z,98430.69
2019-06-01T16:58:38.077Z,98432.87
2019-06-01T17:01:10.180Z,98429.98
2019-06-01T17:03:43.196Z,98427.59
2019-06-01T17:06:13.820Z,98427.78
2019-06-01T17:08:50.518Z,98431.39
2019-06-01T17:11:20.911Z,98429.22
2019-06-01T17:13:53.232Z,98423.75
2019-06-01T17:16:50.220Z,98430.14
2019-06-01T17:19:27.402Z,98427.72
2019-06-01T17:21:59.969Z,98426.63
2019-06-01T17:24:30.248Z,98430.07
2019-06-01T17:27:02.040Z,98431.16
2019-06-01T17:29:33.387Z,98429.98
2019-06-01T17:32:16.810Z,98427.00
2019-06-01T17:34:44.391Z,98422.72
2019-06-01T17:37:17.576Z,98423.76
2019-06-01T17:39:47.925Z,98421.88
2019-06-01T17:42:20.254Z,98421.11
2019-06-01T17:44:56.834Z,98416.83
2019-06-01T17:47:27.903Z,98420.28
2019-06-01T17:50:26.230Z,98416.64
2019-06-01T17:52:58.034Z,98417.91
2019-06-01T17:55:35.185Z,98420.39
2019-06-01T17:58:12.420Z,98414.42
2019-06-01T18:00:53.899Z,98417.80
2019-06-01T18:03:30.108Z,98408.16
2019-06-01T18:06:03.676Z,98423.63
2019-06-01T18:08:34.591Z,98414.72
2019-06-01T18:11:08.737Z,98410.78
2019-06-01T18:13:47.098Z,98411.83
2019-06-01T18:16:21.251Z,98413.59
2019-06-01T18:18:52.515Z,98410.58
2019-06-01T18:21:35.745Z,98413.25
2019-06-01T18:24:30.626Z,98411.23
2019-06-01T18:27:06.551Z,98401.63
2019-06-01T18:29:48.711Z,98407.42
2019-06-01T18:32:18.766Z,98406.81
2019-06-01T18:34:49.264Z,98404.52
2019-06-01T18:37:24.058Z,98396.36
2019-06-01T18:39:57.224Z,98396.56
2019-06-01T18:42:30.807Z,98404.58
2019-06-01T18:45:11.791Z,98405.26
2019-06-01T18:48:00.667Z,98401.71
2019-06-01T18:50:32.001Z,98400.55
2019-06-01T18:53:06.329Z,98399.85
2019-06-01T18:55:37.080Z,98399.48
2019-06-01T18:58:14.991Z,98397.14
2019-06-01T19:00:45.558Z,98399.25
2019-06-01T19:03:19.490Z,98397.66
2019-06-01T19:06:09.555Z,98399.26
2019-06-01T19:08:45.183Z,98396.84
2019-06-01T19:11:29.409Z,98398.14
2019-06-01T19:13:49.939Z,98405.73
2019-06-01T19:16:30.615Z,98402.33
2019-06-01T19:19:01.002Z,98403.55
2019-06-01T19:21:31.495Z,98411.96
2019-06-01T19:24:06.442Z,98408.71
2019-06-01T19:26:38.207Z,98415.63
2019-06-01T19:29:17.828Z,98412.20
2019-06-01T19:32:04.246Z,98415.28
2019-06-01T19:34:40.129Z,98417.31
2019-06-01T19:37:17.201Z,98419.16
2019-06-01T19:39:47.583Z,98421.93
2019-06-01T19:42:18.949Z,98422.05
2019-06-01T19:45:28.786Z,98422.58
2019-06-01T19:47:57.285Z,98424.97
2019-06-01T19:50:29.185Z,98427.34
2019-06-01T19:52:59.943Z,98428.52
2019-06-01T19:55:38.410Z,98430.95
2019-06-01T19:58:12.138Z,98433.98
2019-06-01T20:00:46.703Z,98433.72
2019-06-01T20:03:21.535Z,98439.45
2019-06-01T20:05:56.997Z,98437.53
2019-06-01T20:08:27.294Z,98436.14
2019-06-01T20:11:01.487Z,98440.92
2019-06-01T20:13:42.236Z,98433.82
2019-06-01T20:16:32.821Z,98433.62
2019-06-01T20:19:18.090Z,98438.65
2019-06-01T20:21:49.705Z,98442.78
2019-06-01T20:24:25.656Z,98435.03
2019-06-01T20:26:58.803Z,98443.42
2019-06-01T20:29:33.039Z,98438.31
2019-06-01T20:32:06.471Z,98441.67
2019-06-01T20:34:41.688Z,98448.47
2019-06-01T20:37:14.593Z,98450.70
2019-06-01T20:39:49.604Z,98443.94
2019-06-01T20:42:37.831Z,98442.39
2019-06-01T20:45:16.782Z,98442.45
2019-06-01T20:47:47.280Z,98440.67
2019-06-01T20:50:25.531Z,98446.76
2019-06-01T20:52:59.246Z,98448.11
2019-06-01T20:55:34.196Z,98439.32
2019-06-01T20:58:06.538Z,98448.28
2019-06-01T21:00:39.973Z,98444.84
2019-06-01T21:03:13.734Z,98443.73
2019-06-01T21:05:52.185Z,98444.95
2019-06-01T21:08:30.155Z,98444.33
2019-06-01T21:11:03.149Z,98443.80
2019-06-01T21:13:35.896Z,98444.91
2019-06-01T21:16:07.675Z,98447.58
2019-06-01T21:18:40.993Z,98445.45
2019-06-01T21:21:11.874Z,98443.70
2019-06-01T21:23:48.641Z,98444.59
2019-06-01T21:26:21.082Z,98448.09
2019-06-01T21:28:54.872Z,98447.03
2019-06-01T21:31:27.718Z,98449.39
2019-06-01T21:34:01.441Z,98444.84
2019-06-01T21:36:36.379Z,98444.84
2019-06-01T21:39:13.734Z,98446.42
2019-06-01T21:41:46.624Z,98453.98
2019-06-01T21:44:30.117Z,98450.23
2019-06-01T21:46:52.002Z,98446.16
2019-06-01T21:49:31.383Z,98446.05
2019-06-01T21:52:04.060Z,98446.68
2019-06-01T21:54:39.006Z,98442.79
2019-06-01T21:57:11.802Z,98445.25
2019-06-01T21:59:54.370Z,98440.95
2019-06-01T22:02:25.149Z,98439.19
2019-06-01T22:04:58.723Z,98436.32
2019-06-01T22:07:31.319Z,98436.97
2019-06-01T22:10:07.001Z,98445.41
2019-06-01T22:12:40.584Z,98439.92
2019-06-01T22:15:12.568Z,98440.99
2019-06-01T22:17:48.565Z,98444.39
2019-06-01T22:20:28.295Z,98437.91
2019-06-01T22:23:12.142Z,98445.74
2019-06-01T22:25:42.572Z,98445.28
2019-06-01T22:28:13.645Z,98437.15
2019-06-01T22:30:46.997Z,98438.24
2019-06-01T22:33:22.658Z,98433.44
2019-06-01T22:35:52.796Z,98431.88
2019-06-01T22:38:27.866Z,98433.08
2019-06-01T22:40:58.243Z,98431.91
2019-06-01T22:43:43.432Z,98435.86
2019-06-01T22:46:05.308Z,98430.23
2019-06-01T22:48:38.225Z,98432.88
2019-06-01T22:51:10.102Z,98425.91
2019-06-01T22:53:41.810Z,98428.32
2019-06-01T22:56:12.131Z,98431.44
2019-06-01T22:58:42.692Z,98427.02
2019-06-01T23:01:12.980Z,98422.34
2019-06-01T23:03:43.240Z,98422.59
2019-06-01T23:06:14.096Z,98422.70
2019-06-01T23:08:47.780Z,98418.27
2019-06-01T23:11:21.329Z,98413.38
2019-06-01T23:14:05.252Z,98418.04
2019-06-01T23:16:36.295Z,98413.84
2019-06-01T23:19:08.260Z,98418.77
2019-06-01T23:21:38.991Z,98411.46
2019-06-01T23:24:09.410Z,98413.73
2019-06-01T23:26:44.928Z,98407.74
2019-06-01T23:29:18.255Z,98408.32
2019-06-01T23:31:52.429Z,98410.22
2019-06-01T23:34:30.771Z,98409.14
2019-06-01T23:37:11.892Z,98405.32
2019-06-01T23:39:44.798Z,98410.46
2019-06-01T23:42:15.382Z,98401.84
2019-06-01T23:44:45.634Z,98400.28
2019-06-01T23:47:18.857Z,98388.88
2019-06-01T23:49:49.303Z,98395.96
2019-06-01T23:52:23.530Z,98393.93
2019-06-01T23:54:53.242Z,98390.55
2019-06-01T23:57:23.765Z,98387.20
2019-06-01T23:59:54.180Z,98390.45
